sensor_id;sensor_type;location;lat;lon;timestamp;temperature;humidity
5556;DHT22;2801;50.972;7.856;2023-11-19T00:00:18;8.00;99.90
5556;DHT22;2801;50.972;7.856;2023-11-19T00:02:46;8.10;99.90
5556;DHT22;2801;50.972;7.856;2023-11-19T00:05:14;8.00;99.90
5556;DHT22;2801;50.972;7.856;2023-11-19T00:07:41;8.10;99.90
5556;DHT22;2801;50.972;7.856;2023-11-19T00:10:10;8.10;99.90
5556;DHT22;2801;50.972;7.856;2023-11-19T00:12:41;8.10;99.90
5556;DHT22;2801;50.972;7.856;2023-11-19T00:15:09;8.10;99.90
5556;DHT22;2801;50.972;7.856;2023-11-19T00:17:41;8.10;99.90
5556;DHT22;2801;50.972;7.856;2023-11-19T00:20:15;8.20;99.90
5556;DHT22;2801;50.972;7.856;2023-11-19T00:22:45;8.20;99.90
5556;DHT22;2801;50.972;7.856;2023-11-19T00:25:19;8.20;99.90
5556;DHT22;2801;50.972;7.856;2023-11-19T00:27:49;8.20;99.90
5556;DHT22;2801;50.972;7.856;2023-11-19T00:30:18;8.20;99.90
5556;DHT22;2801;50.972;7.856;2023-11-19T00:32:45;8.20;99.90
5556;DHT22;2801;50.972;7.856;2023-11-19T00:35:12;8.20;99.90
5556;DHT22;2801;50.972;7.856;2023-11-19T00:37:42;8.20;99.90
5556;DHT22;2801;50.972;7.856;2023-11-19T00:40:16;8.30;99.90
5556;DHT22;2801;50.972;7.856;2023-11-19T00:42:45;8.40;99.90
5556;DHT22;2801;50.972;7.856;2023-11-19T00:45:12;8.30;99.90
5556;DHT22;2801;50.972;7.856;2023-11-19T00:47:40;8.40;99.90
5556;DHT22;2801;50.972;7.856;2023-11-19T00:50:09;8.40;99.90
5556;DHT22;2801;50.972;7.856;2023-11-19T00:52:38;8.40;99.90
5556;DHT22;2801;50.972;7.856;2023-11-19T00:55:06;8.40;99.90
5556;DHT22;2801;50.972;7.856;2023-11-19T00:57:35;8.40;99.90
5556;DHT22;2801;50.972;7.856;2023-11-19T01:00:04;8.50;99.90
5556;DHT22;2801;50.972;7.856;2023-11-19T01:02:41;8.40;99.90
5556;DHT22;2801;50.972;7.856;2023-11-19T01:05:09;8.50;99.90
5556;DHT22;2801;50.972;7.856;2023-11-19T01:07:36;8.50;99.90
5556;DHT22;2801;50.972;7.856;2023-11-19T01:10:05;8.50;99.90
5556;DHT22;2801;50.972;7.856;2023-11-19T01:12:34;8.50;99.90
5556;DHT22;2801;50.972;7.856;2023-11-19T01:15:01;8.50;99.90
5556;DHT22;2801;50.972;7.856;2023-11-19T01:17:29;8.50;99.90
5556;DHT22;2801;50.972;7.856;2023-11-19T01:19:58;8.50;99.90
5556;DHT22;2801;50.972;7.856;2023-11-19T01:22:26;8.60;99.90
5556;DHT22;2801;50.972;7.856;2023-11-19T01:24:53;8.60;99.90
5556;DHT22;2801;50.972;7.856;2023-11-19T01:27:23;8.60;99.90
5556;DHT22;2801;50.972;7.856;2023-11-19T01:29:52;8.60;99.90
5556;DHT22;2801;50.972;7.856;2023-11-19T01:32:21;8.60;99.90
5556;DHT22;2801;50.972;7.856;2023-11-19T01:34:52;8.60;99.90
5556;DHT22;2801;50.972;7.856;2023-11-19T01:37:19;8.60;99.90
5556;DHT22;2801;50.972;7.856;2023-11-19T01:39:46;8.60;99.90
5556;DHT22;2801;50.972;7.856;2023-11-19T01:42:25;8.70;99.90
5556;DHT22;2801;50.972;7.856;2023-11-19T01:45:01;8.70;99.90
5556;DHT22;2801;50.972;7.856;2023-11-19T01:47:30;8.70;99.90
5556;DHT22;2801;50.972;7.856;2023-11-19T01:49:58;8.70;99.90
5556;DHT22;2801;50.972;7.856;2023-11-19T01:52:26;8.70;99.90
5556;DHT22;2801;50.972;7.856;2023-11-19T01:54:54;8.80;99.90
5556;DHT22;2801;50.972;7.856;2023-11-19T01:57:24;8.80;99.90
5556;DHT22;2801;50.972;7.856;2023-11-19T01:59:52;8.80;99.90
5556;DHT22;2801;50.972;7.856;2023-11-19T02:02:20;8.80;99.90
5556;DHT22;2801;50.972;7.856;2023-11-19T02:04:51;8.80;99.90
5556;DHT22;2801;50.972;7.856;2023-11-19T02:07:20;8.80;99.90
5556;DHT22;2801;50.972;7.856;2023-11-19T02:09:47;8.90;99.90
5556;DHT22;2801;50.972;7.856;2023-11-19T02:12:14;8.90;99.90
5556;DHT22;2801;50.972;7.856;2023-11-19T02:14:41;8.90;99.90
5556;DHT22;2801;50.972;7.856;2023-11-19T02:17:33;8.90;99.90
5556;DHT22;2801;50.972;7.856;2023-11-19T02:20:05;8.90;99.90
5556;DHT22;2801;50.972;7.856;2023-11-19T02:22:41;9.00;99.90
5556;DHT22;2801;50.972;7.856;2023-11-19T02:25:12;9.00;99.90
5556;DHT22;2801;50.972;7.856;2023-11-19T02:30:28;9.00;99.90
5556;DHT22;2801;50.972;7.856;2023-11-19T02:32:56;9.10;99.90
5556;DHT22;2801;50.972;7.856;2023-11-19T02:35:25;9.10;99.90
5556;DHT22;2801;50.972;7.856;2023-11-19T02:37:59;9.10;99.90
5556;DHT22;2801;50.972;7.856;2023-11-19T02:40:27;9.20;99.90
5556;DHT22;2801;50.972;7.856;2023-11-19T02:42:54;9.20;99.90
5556;DHT22;2801;50.972;7.856;2023-11-19T02:45:23;9.20;99.90
5556;DHT22;2801;50.972;7.856;2023-11-19T02:47:51;9.20;99.90
5556;DHT22;2801;50.972;7.856;2023-11-19T02:50:20;9.30;99.90
5556;DHT22;2801;50.972;7.856;2023-11-19T02:52:54;9.30;99.90
5556;DHT22;2801;50.972;7.856;2023-11-19T02:55:25;9.40;99.90
5556;DHT22;2801;50.972;7.856;2023-11-19T02:57:55;9.40;99.90
5556;DHT22;2801;50.972;7.856;2023-11-19T03:00:23;9.40;99.90
5556;DHT22;2801;50.972;7.856;2023-11-19T03:02:52;9.50;99.90
5556;DHT22;2801;50.972;7.856;2023-11-19T03:05:27;9.50;99.90
5556;DHT22;2801;50.972;7.856;2023-11-19T03:07:57;9.50;99.90
5556;DHT22;2801;50.972;7.856;2023-11-19T03:10:24;9.60;99.90
5556;DHT22;2801;50.972;7.856;2023-11-19T03:12:51;9.70;99.90
5556;DHT22;2801;50.972;7.856;2023-11-19T03:15:18;9.80;99.90
5556;DHT22;2801;50.972;7.856;2023-11-19T03:17:46;9.80;99.90
5556;DHT22;2801;50.972;7.856;2023-11-19T03:20:16;9.80;99.90
5556;DHT22;2801;50.972;7.856;2023-11-19T03:22:43;9.90;99.90
5556;DHT22;2801;50.972;7.856;2023-11-19T03:25:10;9.90;99.90
5556;DHT22;2801;50.972;7.856;2023-11-19T03:27:40;9.90;99.90
5556;DHT22;2801;50.972;7.856;2023-11-19T03:30:09;9.90;99.90
5556;DHT22;2801;50.972;7.856;2023-11-19T03:32:37;9.90;99.90
5556;DHT22;2801;50.972;7.856;2023-11-19T03:35:06;9.90;99.90
5556;DHT22;2801;50.972;7.856;2023-11-19T03:37:34;9.90;99.90
5556;DHT22;2801;50.972;7.856;2023-11-19T03:40:02;9.90;99.90
5556;DHT22;2801;50.972;7.856;2023-11-19T03:42:31;10.00;99.90
5556;DHT22;2801;50.972;7.856;2023-11-19T03:45:03;10.00;99.90
5556;DHT22;2801;50.972;7.856;2023-11-19T03:47:30;10.00;99.90
5556;DHT22;2801;50.972;7.856;2023-11-19T03:49:57;10.00;99.90
5556;DHT22;2801;50.972;7.856;2023-11-19T03:52:24;10.00;99.90
5556;DHT22;2801;50.972;7.856;2023-11-19T03:54:56;10.00;99.90
5556;DHT22;2801;50.972;7.856;2023-11-19T03:57:27;10.00;99.90
5556;DHT22;2801;50.972;7.856;2023-11-19T03:59:54;10.00;99.90
5556;DHT22;2801;50.972;7.856;2023-11-19T04:02:22;10.00;99.90
5556;DHT22;2801;50.972;7.856;2023-11-19T04:04:49;10.00;99.90
5556;DHT22;2801;50.972;7.856;2023-11-19T04:07:16;10.00;99.90
5556;DHT22;2801;50.972;7.856;2023-11-19T04:09:44;10.00;99.90
5556;DHT22;2801;50.972;7.856;2023-11-19T04:12:13;10.00;99.90
5556;DHT22;2801;50.972;7.856;2023-11-19T04:14:41;10.00;99.90
5556;DHT22;2801;50.972;7.856;2023-11-19T04:17:08;10.00;99.90
5556;DHT22;2801;50.972;7.856;2023-11-19T04:19:35;10.00;99.90
5556;DHT22;2801;50.972;7.856;2023-11-19T04:22:02;10.00;99.90
5556;DHT22;2801;50.972;7.856;2023-11-19T04:24:29;10.00;99.90
5556;DHT22;2801;50.972;7.856;2023-11-19T04:26:56;10.00;99.90
5556;DHT22;2801;50.972;7.856;2023-11-19T04:29:23;10.00;99.90
5556;DHT22;2801;50.972;7.856;2023-11-19T04:31:50;10.00;99.90
5556;DHT22;2801;50.972;7.856;2023-11-19T04:34:17;10.00;99.90
5556;DHT22;2801;50.972;7.856;2023-11-19T04:36:46;10.00;99.90
5556;DHT22;2801;50.972;7.856;2023-11-19T04:39:13;10.00;99.90
5556;DHT22;2801;50.972;7.856;2023-11-19T04:41:49;10.00;99.90
5556;DHT22;2801;50.972;7.856;2023-11-19T04:44:16;9.90;99.90
5556;DHT22;2801;50.972;7.856;2023-11-19T04:46:44;9.90;99.90
5556;DHT22;2801;50.972;7.856;2023-11-19T04:49:13;9.80;99.90
5556;DHT22;2801;50.972;7.856;2023-11-19T04:51:42;9.80;99.90
5556;DHT22;2801;50.972;7.856;2023-11-19T04:54:10;9.80;99.90
5556;DHT22;2801;50.972;7.856;2023-11-19T04:56:40;9.90;99.90
5556;DHT22;2801;50.972;7.856;2023-11-19T04:59:07;9.90;99.90
5556;DHT22;2801;50.972;7.856;2023-11-19T05:01:35;10.00;99.90
5556;DHT22;2801;50.972;7.856;2023-11-19T05:04:03;10.00;99.90
5556;DHT22;2801;50.972;7.856;2023-11-19T05:06:31;10.00;99.90
5556;DHT22;2801;50.972;7.856;2023-11-19T05:08:59;10.10;99.90
5556;DHT22;2801;50.972;7.856;2023-11-19T05:11:35;10.10;99.90
5556;DHT22;2801;50.972;7.856;2023-11-19T05:14:17;10.20;99.90
5556;DHT22;2801;50.972;7.856;2023-11-19T05:16:48;10.20;99.90
5556;DHT22;2801;50.972;7.856;2023-11-19T05:19:17;10.20;99.90
5556;DHT22;2801;50.972;7.856;2023-11-19T05:21:44;10.30;99.90
5556;DHT22;2801;50.972;7.856;2023-11-19T05:24:12;10.30;99.90
5556;DHT22;2801;50.972;7.856;2023-11-19T05:26:39;10.30;99.90
5556;DHT22;2801;50.972;7.856;2023-11-19T05:29:08;10.30;99.90
5556;DHT22;2801;50.972;7.856;2023-11-19T05:31:35;10.30;99.90
5556;DHT22;2801;50.972;7.856;2023-11-19T05:34:04;10.30;99.90
5556;DHT22;2801;50.972;7.856;2023-11-19T05:36:34;10.40;99.90
5556;DHT22;2801;50.972;7.856;2023-11-19T05:39:01;10.40;99.90
5556;DHT22;2801;50.972;7.856;2023-11-19T05:41:32;10.40;99.90
5556;DHT22;2801;50.972;7.856;2023-11-19T05:43:59;10.40;99.90
5556;DHT22;2801;50.972;7.856;2023-11-19T05:46:28;10.30;99.90
5556;DHT22;2801;50.972;7.856;2023-11-19T05:48:55;10.40;99.90
5556;DHT22;2801;50.972;7.856;2023-11-19T05:51:22;10.40;99.90
5556;DHT22;2801;50.972;7.856;2023-11-19T05:53:52;10.40;99.90
5556;DHT22;2801;50.972;7.856;2023-11-19T05:56:19;10.40;99.90
5556;DHT22;2801;50.972;7.856;2023-11-19T05:58:48;10.30;99.90
5556;DHT22;2801;50.972;7.856;2023-11-19T06:01:17;10.30;99.90
5556;DHT22;2801;50.972;7.856;2023-11-19T06:03:44;10.20;99.90
5556;DHT22;2801;50.972;7.856;2023-11-19T06:06:18;10.20;99.90
5556;DHT22;2801;50.972;7.856;2023-11-19T06:08:47;10.10;99.90
5556;DHT22;2801;50.972;7.856;2023-11-19T06:11:15;10.00;99.90
5556;DHT22;2801;50.972;7.856;2023-11-19T06:13:47;10.00;99.90
5556;DHT22;2801;50.972;7.856;2023-11-19T06:16:18;10.00;99.90
5556;DHT22;2801;50.972;7.856;2023-11-19T06:18:45;10.00;99.90
5556;DHT22;2801;50.972;7.856;2023-11-19T06:21:13;10.00;99.90
5556;DHT22;2801;50.972;7.856;2023-11-19T06:23:46;10.00;99.90
5556;DHT22;2801;50.972;7.856;2023-11-19T06:26:15;10.00;99.90
5556;DHT22;2801;50.972;7.856;2023-11-19T06:28:42;10.00;99.90
5556;DHT22;2801;50.972;7.856;2023-11-19T06:31:11;9.90;99.90
5556;DHT22;2801;50.972;7.856;2023-11-19T06:33:43;9.90;99.90
5556;DHT22;2801;50.972;7.856;2023-11-19T06:36:10;9.90;99.90
5556;DHT22;2801;50.972;7.856;2023-11-19T06:38:37;9.90;99.90
5556;DHT22;2801;50.972;7.856;2023-11-19T06:41:07;10.00;99.90
5556;DHT22;2801;50.972;7.856;2023-11-19T06:43:37;9.90;99.90
5556;DHT22;2801;50.972;7.856;2023-11-19T06:46:15;9.90;99.90
5556;DHT22;2801;50.972;7.856;2023-11-19T06:48:44;9.90;99.90
5556;DHT22;2801;50.972;7.856;2023-11-19T06:51:12;9.80;99.90
5556;DHT22;2801;50.972;7.856;2023-11-19T06:53:39;9.80;99.90
5556;DHT22;2801;50.972;7.856;2023-11-19T06:56:27;9.80;99.90
5556;DHT22;2801;50.972;7.856;2023-11-19T06:58:54;9.80;99.90
5556;DHT22;2801;50.972;7.856;2023-11-19T07:01:21;9.80;99.90
5556;DHT22;2801;50.972;7.856;2023-11-19T07:03:48;9.80;99.90
5556;DHT22;2801;50.972;7.856;2023-11-19T07:06:16;9.80;99.90
5556;DHT22;2801;50.972;7.856;2023-11-19T07:08:43;9.70;99.90
5556;DHT22;2801;50.972;7.856;2023-11-19T07:11:14;9.70;99.90
5556;DHT22;2801;50.972;7.856;2023-11-19T07:13:43;9.70;99.90
5556;DHT22;2801;50.972;7.856;2023-11-19T07:16:10;9.60;99.90
5556;DHT22;2801;50.972;7.856;2023-11-19T07:18:37;9.60;99.90
5556;DHT22;2801;50.972;7.856;2023-11-19T07:21:05;9.60;99.90
5556;DHT22;2801;50.972;7.856;2023-11-19T07:23:32;9.50;99.90
5556;DHT22;2801;50.972;7.856;2023-11-19T07:26:01;9.50;99.90
5556;DHT22;2801;50.972;7.856;2023-11-19T07:28:28;9.60;99.90
5556;DHT22;2801;50.972;7.856;2023-11-19T07:30:55;9.50;99.90
5556;DHT22;2801;50.972;7.856;2023-11-19T07:33:23;9.50;99.90
5556;DHT22;2801;50.972;7.856;2023-11-19T07:35:50;9.50;99.90
5556;DHT22;2801;50.972;7.856;2023-11-19T07:38:18;9.50;99.90
5556;DHT22;2801;50.972;7.856;2023-11-19T07:40:45;9.40;99.90
5556;DHT22;2801;50.972;7.856;2023-11-19T07:43:17;9.40;99.90
5556;DHT22;2801;50.972;7.856;2023-11-19T07:45:44;9.40;99.90
5556;DHT22;2801;50.972;7.856;2023-11-19T07:48:12;9.40;99.90
5556;DHT22;2801;50.972;7.856;2023-11-19T07:50:40;9.40;99.90
5556;DHT22;2801;50.972;7.856;2023-11-19T07:53:11;9.40;99.90
5556;DHT22;2801;50.972;7.856;2023-11-19T07:55:39;9.40;99.90
5556;DHT22;2801;50.972;7.856;2023-11-19T07:58:08;9.30;99.90
5556;DHT22;2801;50.972;7.856;2023-11-19T08:00:38;9.30;99.90
5556;DHT22;2801;50.972;7.856;2023-11-19T08:03:05;9.30;99.90
5556;DHT22;2801;50.972;7.856;2023-11-19T08:05:32;9.40;99.90
5556;DHT22;2801;50.972;7.856;2023-11-19T08:07:59;9.40;99.90
5556;DHT22;2801;50.972;7.856;2023-11-19T08:10:27;9.50;99.90
5556;DHT22;2801;50.972;7.856;2023-11-19T08:12:54;9.60;99.90
5556;DHT22;2801;50.972;7.856;2023-11-19T08:15:21;9.70;99.90
5556;DHT22;2801;50.972;7.856;2023-11-19T08:17:51;9.60;99.90
5556;DHT22;2801;50.972;7.856;2023-11-19T08:20:18;9.60;99.90
5556;DHT22;2801;50.972;7.856;2023-11-19T08:22:45;9.60;99.90
5556;DHT22;2801;50.972;7.856;2023-11-19T08:25:12;9.70;99.90
5556;DHT22;2801;50.972;7.856;2023-11-19T08:27:39;9.70;99.90
5556;DHT22;2801;50.972;7.856;2023-11-19T08:30:07;9.70;99.90
5556;DHT22;2801;50.972;7.856;2023-11-19T08:32:34;9.70;99.90
5556;DHT22;2801;50.972;7.856;2023-11-19T08:35:03;9.80;99.90
5556;DHT22;2801;50.972;7.856;2023-11-19T08:37:30;9.80;99.90
5556;DHT22;2801;50.972;7.856;2023-11-19T08:39:58;9.80;99.90
5556;DHT22;2801;50.972;7.856;2023-11-19T08:42:25;9.90;99.90
5556;DHT22;2801;50.972;7.856;2023-11-19T08:44:52;9.90;99.90
5556;DHT22;2801;50.972;7.856;2023-11-19T08:47:21;9.90;99.90
5556;DHT22;2801;50.972;7.856;2023-11-19T08:49:53;9.80;99.90
5556;DHT22;2801;50.972;7.856;2023-11-19T08:52:25;9.80;99.90
5556;DHT22;2801;50.972;7.856;2023-11-19T08:54:52;9.90;99.90
5556;DHT22;2801;50.972;7.856;2023-11-19T08:57:19;10.10;99.90
5556;DHT22;2801;50.972;7.856;2023-11-19T08:59:49;10.00;99.90
5556;DHT22;2801;50.972;7.856;2023-11-19T09:02:17;10.00;99.90
5556;DHT22;2801;50.972;7.856;2023-11-19T09:04:46;10.00;99.90
5556;DHT22;2801;50.972;7.856;2023-11-19T09:07:13;10.10;99.90
5556;DHT22;2801;50.972;7.856;2023-11-19T09:09:40;10.20;99.90
5556;DHT22;2801;50.972;7.856;2023-11-19T09:12:07;10.30;99.90
5556;DHT22;2801;50.972;7.856;2023-11-19T09:14:34;10.50;99.90
5556;DHT22;2801;50.972;7.856;2023-11-19T09:17:01;10.50;99.90
5556;DHT22;2801;50.972;7.856;2023-11-19T09:19:32;10.60;99.90
5556;DHT22;2801;50.972;7.856;2023-11-19T09:21:59;10.60;99.90
5556;DHT22;2801;50.972;7.856;2023-11-19T09:24:27;10.60;99.90
5556;DHT22;2801;50.972;7.856;2023-11-19T09:26:54;10.60;99.90
5556;DHT22;2801;50.972;7.856;2023-11-19T09:29:23;10.70;99.90
5556;DHT22;2801;50.972;7.856;2023-11-19T09:31:50;10.60;99.90
5556;DHT22;2801;50.972;7.856;2023-11-19T09:34:17;10.60;99.90
5556;DHT22;2801;50.972;7.856;2023-11-19T09:36:44;10.70;99.90
5556;DHT22;2801;50.972;7.856;2023-11-19T09:39:13;10.70;99.90
5556;DHT22;2801;50.972;7.856;2023-11-19T09:41:45;10.80;99.90
5556;DHT22;2801;50.972;7.856;2023-11-19T09:44:12;10.80;99.90
5556;DHT22;2801;50.972;7.856;2023-11-19T09:46:41;10.80;99.90
5556;DHT22;2801;50.972;7.856;2023-11-19T09:49:08;10.70;99.90
5556;DHT22;2801;50.972;7.856;2023-11-19T09:51:37;10.70;99.90
5556;DHT22;2801;50.972;7.856;2023-11-19T09:54:04;10.70;99.90
5556;DHT22;2801;50.972;7.856;2023-11-19T09:56:32;10.70;99.90
5556;DHT22;2801;50.972;7.856;2023-11-19T09:59:00;10.70;99.90
5556;DHT22;2801;50.972;7.856;2023-11-19T10:01:28;10.70;99.90
5556;DHT22;2801;50.972;7.856;2023-11-19T10:03:59;10.70;99.90
5556;DHT22;2801;50.972;7.856;2023-11-19T10:06:28;10.80;99.90
5556;DHT22;2801;50.972;7.856;2023-11-19T10:08:55;10.80;99.90
5556;DHT22;2801;50.972;7.856;2023-11-19T10:11:24;10.90;99.90
5556;DHT22;2801;50.972;7.856;2023-11-19T10:13:53;10.80;99.90
5556;DHT22;2801;50.972;7.856;2023-11-19T10:16:22;10.80;99.90
5556;DHT22;2801;50.972;7.856;2023-11-19T10:18:56;10.90;99.90
5556;DHT22;2801;50.972;7.856;2023-11-19T10:21:23;10.90;99.90
5556;DHT22;2801;50.972;7.856;2023-11-19T10:23:57;11.00;99.90
5556;DHT22;2801;50.972;7.856;2023-11-19T10:26:27;11.10;99.90
5556;DHT22;2801;50.972;7.856;2023-11-19T10:28:55;11.10;99.90
5556;DHT22;2801;50.972;7.856;2023-11-19T10:31:23;11.10;99.90
5556;DHT22;2801;50.972;7.856;2023-11-19T10:33:52;11.00;99.90
5556;DHT22;2801;50.972;7.856;2023-11-19T10:36:20;11.00;99.90
5556;DHT22;2801;50.972;7.856;2023-11-19T10:38:54;11.00;99.90
5556;DHT22;2801;50.972;7.856;2023-11-19T10:41:32;11.00;99.90
5556;DHT22;2801;50.972;7.856;2023-11-19T10:43:59;11.00;99.90
5556;DHT22;2801;50.972;7.856;2023-11-19T10:46:38;11.00;99.90
5556;DHT22;2801;50.972;7.856;2023-11-19T10:49:08;11.00;99.90
5556;DHT22;2801;50.972;7.856;2023-11-19T10:51:35;11.10;99.90
5556;DHT22;2801;50.972;7.856;2023-11-19T10:54:04;11.20;99.90
5556;DHT22;2801;50.972;7.856;2023-11-19T10:56:33;11.20;99.90
5556;DHT22;2801;50.972;7.856;2023-11-19T10:59:02;11.30;99.90
5556;DHT22;2801;50.972;7.856;2023-11-19T11:01:48;11.30;99.90
5556;DHT22;2801;50.972;7.856;2023-11-19T11:04:23;11.30;99.90
5556;DHT22;2801;50.972;7.856;2023-11-19T11:06:55;11.30;99.90
5556;DHT22;2801;50.972;7.856;2023-11-19T11:09:23;11.30;99.90
5556;DHT22;2801;50.972;7.856;2023-11-19T11:11:51;11.30;99.90
5556;DHT22;2801;50.972;7.856;2023-11-19T11:14:22;11.40;99.90
5556;DHT22;2801;50.972;7.856;2023-11-19T11:16:53;11.20;99.90
5556;DHT22;2801;50.972;7.856;2023-11-19T11:19:21;11.30;99.90
5556;DHT22;2801;50.972;7.856;2023-11-19T11:21:53;11.30;99.90
5556;DHT22;2801;50.972;7.856;2023-11-19T11:36:02;11.40;99.90
5556;DHT22;2801;50.972;7.856;2023-11-19T11:38:36;11.50;99.90
5556;DHT22;2801;50.972;7.856;2023-11-19T11:41:23;11.50;99.90
5556;DHT22;2801;50.972;7.856;2023-11-19T11:43:56;11.70;99.90
5556;DHT22;2801;50.972;7.856;2023-11-19T11:49:02;11.80;99.90
5556;DHT22;2801;50.972;7.856;2023-11-19T11:57:11;11.80;99.90
5556;DHT22;2801;50.972;7.856;2023-11-19T11:59:50;11.70;99.90
5556;DHT22;2801;50.972;7.856;2023-11-19T12:02:20;11.60;99.90
5556;DHT22;2801;50.972;7.856;2023-11-19T12:04:52;11.50;99.90
5556;DHT22;2801;50.972;7.856;2023-11-19T12:07:24;11.20;99.90
5556;DHT22;2801;50.972;7.856;2023-11-19T12:10:09;11.00;99.90
5556;DHT22;2801;50.972;7.856;2023-11-19T12:12:59;10.80;99.90
5556;DHT22;2801;50.972;7.856;2023-11-19T12:15:28;10.50;99.90
5556;DHT22;2801;50.972;7.856;2023-11-19T12:17:55;10.30;99.90
5556;DHT22;2801;50.972;7.856;2023-11-19T12:20:24;10.10;99.90
5556;DHT22;2801;50.972;7.856;2023-11-19T12:22:55;10.00;99.90
5556;DHT22;2801;50.972;7.856;2023-11-19T12:25:22;9.90;99.90
5556;DHT22;2801;50.972;7.856;2023-11-19T12:27:51;9.80;99.90
5556;DHT22;2801;50.972;7.856;2023-11-19T12:30:26;9.90;99.90
5556;DHT22;2801;50.972;7.856;2023-11-19T12:32:54;10.00;99.90
5556;DHT22;2801;50.972;7.856;2023-11-19T12:35:23;9.90;99.90
5556;DHT22;2801;50.972;7.856;2023-11-19T12:37:52;9.90;99.90
5556;DHT22;2801;50.972;7.856;2023-11-19T12:40:24;9.80;99.90
5556;DHT22;2801;50.972;7.856;2023-11-19T12:42:53;9.80;99.90
5556;DHT22;2801;50.972;7.856;2023-11-19T12:45:22;9.70;99.90
5556;DHT22;2801;50.972;7.856;2023-11-19T12:48:04;9.70;99.90
5556;DHT22;2801;50.972;7.856;2023-11-19T12:53:23;9.70;99.90
5556;DHT22;2801;50.972;7.856;2023-11-19T12:55:52;9.80;99.90
5556;DHT22;2801;50.972;7.856;2023-11-19T12:58:35;9.70;99.90
5556;DHT22;2801;50.972;7.856;2023-11-19T13:01:05;9.70;99.90
5556;DHT22;2801;50.972;7.856;2023-11-19T13:03:37;9.70;99.90
5556;DHT22;2801;50.972;7.856;2023-11-19T13:08:41;9.90;99.90
5556;DHT22;2801;50.972;7.856;2023-11-19T13:11:14;10.00;99.90
5556;DHT22;2801;50.972;7.856;2023-11-19T13:14:05;10.00;99.90
5556;DHT22;2801;50.972;7.856;2023-11-19T13:16:37;10.10;99.90
5556;DHT22;2801;50.972;7.856;2023-11-19T13:19:10;10.10;99.90
5556;DHT22;2801;50.972;7.856;2023-11-19T13:21:37;10.10;99.90
5556;DHT22;2801;50.972;7.856;2023-11-19T13:24:07;10.20;99.90
5556;DHT22;2801;50.972;7.856;2023-11-19T13:26:35;10.30;99.90
5556;DHT22;2801;50.972;7.856;2023-11-19T13:29:02;10.20;99.90
5556;DHT22;2801;50.972;7.856;2023-11-19T13:31:31;10.20;99.90
5556;DHT22;2801;50.972;7.856;2023-11-19T13:34:01;10.10;99.90
5556;DHT22;2801;50.972;7.856;2023-11-19T13:36:28;10.20;99.90
5556;DHT22;2801;50.972;7.856;2023-11-19T13:38:55;10.10;99.90
5556;DHT22;2801;50.972;7.856;2023-11-19T13:41:26;10.10;99.90
5556;DHT22;2801;50.972;7.856;2023-11-19T13:43:53;10.00;99.90
5556;DHT22;2801;50.972;7.856;2023-11-19T13:46:21;10.10;99.90
5556;DHT22;2801;50.972;7.856;2023-11-19T13:48:49;10.00;99.90
5556;DHT22;2801;50.972;7.856;2023-11-19T13:51:19;9.90;99.90
5556;DHT22;2801;50.972;7.856;2023-11-19T13:53:47;9.90;99.90
5556;DHT22;2801;50.972;7.856;2023-11-19T13:56:17;9.90;99.90
5556;DHT22;2801;50.972;7.856;2023-11-19T13:58:44;9.80;99.90
5556;DHT22;2801;50.972;7.856;2023-11-19T14:01:11;9.90;99.90
5556;DHT22;2801;50.972;7.856;2023-11-19T14:03:40;9.80;99.90
5556;DHT22;2801;50.972;7.856;2023-11-19T14:06:09;9.80;99.90
5556;DHT22;2801;50.972;7.856;2023-11-19T14:08:36;9.70;99.90
5556;DHT22;2801;50.972;7.856;2023-11-19T14:11:05;9.60;99.90
5556;DHT22;2801;50.972;7.856;2023-11-19T14:13:33;9.60;99.90
5556;DHT22;2801;50.972;7.856;2023-11-19T14:16:01;9.60;99.90
5556;DHT22;2801;50.972;7.856;2023-11-19T14:18:33;9.50;99.90
5556;DHT22;2801;50.972;7.856;2023-11-19T14:21:02;9.50;99.90
5556;DHT22;2801;50.972;7.856;2023-11-19T14:23:30;9.50;99.90
5556;DHT22;2801;50.972;7.856;2023-11-19T14:25:57;9.50;99.90
5556;DHT22;2801;50.972;7.856;2023-11-19T14:28:25;9.50;99.90
5556;DHT22;2801;50.972;7.856;2023-11-19T14:30:53;9.50;99.90
5556;DHT22;2801;50.972;7.856;2023-11-19T14:33:24;9.50;99.90
5556;DHT22;2801;50.972;7.856;2023-11-19T14:35:51;9.50;99.90
5556;DHT22;2801;50.972;7.856;2023-11-19T14:38:20;9.50;99.90
5556;DHT22;2801;50.972;7.856;2023-11-19T14:40:47;9.50;99.90
5556;DHT22;2801;50.972;7.856;2023-11-19T14:43:15;9.50;99.90
5556;DHT22;2801;50.972;7.856;2023-11-19T14:45:42;9.40;99.90
5556;DHT22;2801;50.972;7.856;2023-11-19T14:48:16;9.40;99.90
5556;DHT22;2801;50.972;7.856;2023-11-19T14:50:46;9.40;99.90
5556;DHT22;2801;50.972;7.856;2023-11-19T14:53:13;9.30;99.90
5556;DHT22;2801;50.972;7.856;2023-11-19T14:55:42;9.20;99.90
5556;DHT22;2801;50.972;7.856;2023-11-19T14:58:09;9.20;99.90
5556;DHT22;2801;50.972;7.856;2023-11-19T15:00:41;9.20;99.90
5556;DHT22;2801;50.972;7.856;2023-11-19T15:03:08;9.20;99.90
5556;DHT22;2801;50.972;7.856;2023-11-19T15:05:36;9.20;99.90
5556;DHT22;2801;50.972;7.856;2023-11-19T15:08:03;9.20;99.90
5556;DHT22;2801;50.972;7.856;2023-11-19T15:10:31;9.20;99.90
5556;DHT22;2801;50.972;7.856;2023-11-19T15:12:58;9.30;99.90
5556;DHT22;2801;50.972;7.856;2023-11-19T15:15:25;9.20;99.90
5556;DHT22;2801;50.972;7.856;2023-11-19T15:17:55;9.30;99.90
5556;DHT22;2801;50.972;7.856;2023-11-19T15:20:23;9.30;99.90
5556;DHT22;2801;50.972;7.856;2023-11-19T15:22:50;9.30;99.90
5556;DHT22;2801;50.972;7.856;2023-11-19T15:25:18;9.30;99.90
5556;DHT22;2801;50.972;7.856;2023-11-19T15:27:45;9.30;99.90
5556;DHT22;2801;50.972;7.856;2023-11-19T15:30:14;9.30;99.90
5556;DHT22;2801;50.972;7.856;2023-11-19T15:32:42;9.30;99.90
5556;DHT22;2801;50.972;7.856;2023-11-19T15:35:12;9.30;99.90
5556;DHT22;2801;50.972;7.856;2023-11-19T15:37:40;9.30;99.90
5556;DHT22;2801;50.972;7.856;2023-11-19T15:40:11;9.30;99.90
5556;DHT22;2801;50.972;7.856;2023-11-19T15:42:40;9.30;99.90
5556;DHT22;2801;50.972;7.856;2023-11-19T15:45:10;9.30;99.90
5556;DHT22;2801;50.972;7.856;2023-11-19T15:47:38;9.30;99.90
5556;DHT22;2801;50.972;7.856;2023-11-19T15:50:06;9.30;99.90
5556;DHT22;2801;50.972;7.856;2023-11-19T15:52:37;9.30;99.90
5556;DHT22;2801;50.972;7.856;2023-11-19T15:55:06;9.30;99.90
5556;DHT22;2801;50.972;7.856;2023-11-19T15:57:33;9.30;99.90
5556;DHT22;2801;50.972;7.856;2023-11-19T16:00:00;9.30;99.90
5556;DHT22;2801;50.972;7.856;2023-11-19T16:02:27;9.20;99.90
5556;DHT22;2801;50.972;7.856;2023-11-19T16:04:55;9.30;99.90
5556;DHT22;2801;50.972;7.856;2023-11-19T16:07:22;9.20;99.90
5556;DHT22;2801;50.972;7.856;2023-11-19T16:09:49;9.30;99.90
5556;DHT22;2801;50.972;7.856;2023-11-19T16:12:17;9.30;99.90
5556;DHT22;2801;50.972;7.856;2023-11-19T16:14:44;9.20;99.90
5556;DHT22;2801;50.972;7.856;2023-11-19T16:17:11;9.20;99.90
5556;DHT22;2801;50.972;7.856;2023-11-19T16:19:40;9.20;99.90
5556;DHT22;2801;50.972;7.856;2023-11-19T16:22:08;9.20;99.90
5556;DHT22;2801;50.972;7.856;2023-11-19T16:24:38;9.20;99.90
5556;DHT22;2801;50.972;7.856;2023-11-19T16:27:05;9.20;99.90
5556;DHT22;2801;50.972;7.856;2023-11-19T16:29:35;9.10;99.90
5556;DHT22;2801;50.972;7.856;2023-11-19T16:32:02;9.20;99.90
5556;DHT22;2801;50.972;7.856;2023-11-19T16:34:29;9.20;99.90
5556;DHT22;2801;50.972;7.856;2023-11-19T16:36:57;9.10;99.90
5556;DHT22;2801;50.972;7.856;2023-11-19T16:39:25;9.10;99.90
5556;DHT22;2801;50.972;7.856;2023-11-19T16:41:52;9.10;99.90
5556;DHT22;2801;50.972;7.856;2023-11-19T16:44:20;9.10;99.90
5556;DHT22;2801;50.972;7.856;2023-11-19T16:46:47;9.10;99.90
5556;DHT22;2801;50.972;7.856;2023-11-19T16:49:14;9.10;99.90
5556;DHT22;2801;50.972;7.856;2023-11-19T16:51:46;9.10;99.90